Time;durP1;ratioP1;P1;durP2;ratioP2;P2;SDS_P1;SDS_P2;PMS_P1;PMS_P2;Temp;Humidity;BMP_temperature;BMP_pressure;BME280_temperature;BME280_humidity;BME280_pressure;Samples;Min_cycle;Max_cycle;Signal;HPM_P1;HPM_P2
2021/07/15 00:00:41;;;;;;;0.68;0.45;;;14.90;99.90;;;;;;6244844;28;20462;-79
2021/07/15 00:03:42;;;;;;;1.70;0.52;;;14.90;99.90;;;;;;6208955;28;20476;-79
2021/07/15 00:06:42;;;;;;;0.47;0.47;;;14.90;99.90;;;;;;6243119;28;20080;-79
2021/07/15 00:09:43;;;;;;;2.00;0.47;;;14.90;99.90;;;;;;6243451;28;20041;-79
2021/07/15 00:12:44;;;;;;;1.33;0.50;;;14.90;99.90;;;;;;6226681;28;20029;-79
2021/07/15 00:15:47;;;;;;;0.30;0.30;;;14.90;99.90;;;;;;6243122;28;20088;-79
2021/07/15 00:18:48;;;;;;;0.40;0.40;;;14.90;99.90;;;;;;6212651;28;20096;-79
2021/07/15 00:21:49;;;;;;;0.30;0.30;;;14.90;99.90;;;;;;6242777;28;20064;-80
2021/07/15 00:24:49;;;;;;;0.57;0.57;;;14.90;99.90;;;;;;6243384;28;20873;-79
2021/07/15 00:27:50;;;;;;;0.38;0.38;;;14.90;99.90;;;;;;6242886;28;20079;-79
2021/07/15 00:30:50;;;;;;;0.43;0.43;;;15.00;99.90;;;;;;6243065;28;20116;-79
2021/07/15 00:33:51;;;;;;;0.60;0.50;;;14.80;99.90;;;;;;6226186;28;20456;-79
2021/07/15 00:36:52;;;;;;;0.30;0.30;;;14.90;99.90;;;;;;6242600;28;20044;-79
2021/07/15 00:39:52;;;;;;;0.40;0.30;;;14.90;99.90;;;;;;6242867;28;20635;-79
2021/07/15 00:42:53;;;;;;;0.40;0.40;;;15.50;99.90;;;;;;6242963;28;20498;-78
2021/07/15 00:45:53;;;;;;;1.02;0.65;;;14.90;99.90;;;;;;6242668;28;20561;-78
2021/07/15 00:48:54;;;;;;;0.30;0.30;;;15.20;99.90;;;;;;6242855;28;20483;-78
2021/07/15 00:51:55;;;;;;;0.60;0.45;;;14.90;99.90;;;;;;6226128;28;20025;-79
2021/07/15 00:54:55;;;;;;;0.55;0.50;;;14.90;99.90;;;;;;6243455;28;20029;-79
2021/07/15 00:57:56;;;;;;;1.75;0.50;;;14.90;99.90;;;;;;6242511;28;20042;-79
2021/07/15 01:00:56;;;;;;;0.50;0.50;;;14.90;99.90;;;;;;6235116;28;20030;-79
2021/07/15 01:03:57;;;;;;;0.35;0.35;;;14.90;99.90;;;;;;6241150;28;20095;-79
2021/07/15 01:06:57;;;;;;;0.35;0.35;;;14.90;99.90;;;;;;6234991;28;20038;-79
2021/07/15 01:09:58;;;;;;;0.88;0.45;;;14.90;99.90;;;;;;6229952;28;20029;-79
2021/07/15 01:13:11;;;;;;;0.50;0.50;;;14.90;99.90;;;;;;6234375;28;20030;-79
2021/07/15 01:16:50;;;;;;;0.50;0.50;;;15.00;99.90;;;;;;6233847;28;20056;-79
2021/07/15 01:19:53;;;;;;;0.20;0.20;;;15.00;99.90;;;;;;6239151;28;20251;-79
2021/07/15 01:23:22;;;;;;;0.30;0.30;;;14.90;99.90;;;;;;6230221;28;20469;-79
2021/07/15 01:26:28;;;;;;;0.40;0.40;;;14.80;99.90;;;;;;6242837;28;20112;-80
2021/07/15 01:29:58;;;;;;;0.30;0.30;;;14.90;99.90;;;;;;6258469;28;20037;-80
2021/07/15 01:33:15;;;;;;;0.40;0.40;;;14.90;99.90;;;;;;6234127;28;20057;-79
2021/07/15 01:36:18;;;;;;;0.38;0.38;;;14.90;99.90;;;;;;6241541;28;20379;-80
2021/07/15 01:39:21;;;;;;;0.60;0.50;;;14.80;99.90;;;;;;6234217;28;20041;-80
2021/07/15 01:42:22;;;;;;;0.40;0.40;;;14.90;99.90;;;;;;6241980;28;20033;-79
2021/07/15 01:45:24;;;;;;;0.20;0.20;;;14.90;99.90;;;;;;6241820;28;20132;-80
2021/07/15 01:48:24;;;;;;;0.38;0.38;;;14.90;99.90;;;;;;6233438;28;20018;-79
2021/07/15 01:51:25;;;;;;;0.43;0.43;;;14.90;99.90;;;;;;6241152;28;20043;-79
2021/07/15 01:54:26;;;;;;;0.45;0.40;;;14.90;99.90;;;;;;6241779;28;20084;-79
2021/07/15 01:57:27;;;;;;;2.00;0.70;;;15.00;99.90;;;;;;6241274;28;20128;-79
2021/07/15 02:00:28;;;;;;;0.85;0.55;;;14.90;99.90;;;;;;6241552;28;20039;-79
2021/07/15 02:03:28;;;;;;;0.30;0.30;;;14.80;99.90;;;;;;6241391;28;20041;-79
2021/07/15 02:06:31;;;;;;;1.70;0.57;;;14.70;99.90;;;;;;6241679;28;20029;-78
2021/07/15 02:09:31;;;;;;;0.80;0.80;;;14.70;99.90;;;;;;6241554;28;20022;-78
2021/07/15 02:12:32;;;;;;;0.60;0.60;;;14.70;99.90;;;;;;6241336;28;20103;-78
2021/07/15 02:15:32;;;;;;;0.50;0.50;;;14.60;99.90;;;;;;6241359;28;20052;-78
2021/07/15 02:18:33;;;;;;;2.17;0.77;;;14.60;99.90;;;;;;6241001;28;20041;-78
2021/07/15 02:21:35;;;;;;;1.45;0.70;;;14.50;99.90;;;;;;6233811;28;20480;-78
2021/07/15 02:24:35;;;;;;;1.20;0.98;;;14.50;99.90;;;;;;6250141;28;20033;-78
2021/07/15 02:27:36;;;;;;;1.10;1.00;;;14.50;99.90;;;;;;6241269;28;20045;-78
2021/07/15 02:30:36;;;;;;;0.65;0.65;;;14.60;99.90;;;;;;6242062;28;20156;-78
2021/07/15 02:33:38;;;;;;;0.50;0.50;;;14.50;99.90;;;;;;6245588;28;20047;-78
2021/07/15 02:36:39;;;;;;;1.38;0.43;;;14.50;99.90;;;;;;6242660;28;20535;-78
2021/07/15 02:39:39;;;;;;;2.63;0.60;;;14.50;99.90;;;;;;6244911;28;20037;-78
2021/07/15 02:42:40;;;;;;;0.95;0.47;;;14.50;99.90;;;;;;6224919;28;20053;-78
2021/07/15 02:45:41;;;;;;;0.70;0.50;;;14.50;99.90;;;;;;6245586;28;20392;-78
2021/07/15 02:48:41;;;;;;;0.32;0.32;;;14.50;99.90;;;;;;6245415;28;20029;-78
2021/07/15 02:51:42;;;;;;;1.02;0.65;;;14.50;99.90;;;;;;6223403;28;20026;-78
2021/07/15 02:54:43;;;;;;;0.40;0.40;;;14.70;99.90;;;;;;6230375;28;20532;-78
2021/07/15 02:58:04;;;;;;;0.85;0.43;;;14.50;99.90;;;;;;6244584;28;20084;-78
2021/07/15 03:01:06;;;;;;;0.20;0.20;;;14.50;99.90;;;;;;6245282;28;20030;-78
2021/07/15 03:04:25;;;;;;;1.88;0.57;;;14.60;99.90;;;;;;6244895;28;20076;-78
2021/07/15 03:07:25;;;;;;;0.32;0.32;;;14.60;99.90;;;;;;6237637;28;20117;-79
2021/07/15 03:10:26;;;;;;;0.50;0.50;;;14.40;99.90;;;;;;6222484;28;20411;-78
2021/07/15 03:13:26;;;;;;;0.32;0.32;;;14.60;99.90;;;;;;6244535;28;20087;-78
2021/07/15 03:16:27;;;;;;;0.57;0.50;;;14.60;99.90;;;;;;6244489;28;20025;-79
2021/07/15 03:19:30;;;;;;;0.52;0.40;;;14.60;99.90;;;;;;6244723;28;20064;-78
2021/07/15 03:22:32;;;;;;;0.40;0.40;;;14.60;99.90;;;;;;6245080;28;20021;-78
2021/07/15 03:25:33;;;;;;;0.43;0.43;;;14.70;99.90;;;;;;6228193;28;20426;-78
2021/07/15 03:28:35;;;;;;;0.43;0.40;;;14.70;99.90;;;;;;6244427;28;20392;-78
2021/07/15 03:31:35;;;;;;;2.90;0.55;;;14.70;99.90;;;;;;6244461;28;20025;-78
2021/07/15 03:34:36;;;;;;;1.08;0.82;;;14.70;99.90;;;;;;6244323;28;20392;-78
2021/07/15 03:37:40;;;;;;;0.65;0.65;;;14.80;99.90;;;;;;6244437;28;20045;-79
2021/07/15 03:40:41;;;;;;;0.95;0.70;;;14.70;99.90;;;;;;6244302;28;20538;-79
2021/07/15 03:43:42;;;;;;;1.63;0.77;;;14.70;99.90;;;;;;6243470;28;20132;-79
2021/07/15 03:46:43;;;;;;;0.70;0.70;;;14.90;99.90;;;;;;6244035;28;20364;-78
2021/07/15 03:49:44;;;;;;;1.08;0.95;;;14.80;99.90;;;;;;6236485;28;20046;-78
2021/07/15 03:52:46;;;;;;;1.42;0.50;;;14.80;99.90;;;;;;6243531;28;20038;-78
2021/07/15 03:55:47;;;;;;;0.70;0.68;;;14.80;99.90;;;;;;6219901;28;20388;-78
2021/07/15 03:58:47;;;;;;;0.40;0.40;;;14.80;99.90;;;;;;6243618;28;20049;-79
2021/07/15 04:02:03;;;;;;;0.60;0.60;;;14.80;99.90;;;;;;6243933;28;20080;-78
2021/07/15 04:05:04;;;;;;;1.80;0.70;;;14.80;99.90;;;;;;6243818;28;20021;-78
2021/07/15 04:08:05;;;;;;;1.95;0.63;;;14.80;99.90;;;;;;6243462;28;20040;-79
2021/07/15 04:11:06;;;;;;;0.63;0.63;;;14.80;99.90;;;;;;6243709;28;20029;-78
2021/07/15 04:14:10;;;;;;;1.23;0.47;;;14.80;99.90;;;;;;6243619;28;20034;-78
2021/07/15 04:17:12;;;;;;;0.50;0.50;;;14.80;99.90;;;;;;6243031;28;20040;-78
2021/07/15 04:20:12;;;;;;;0.55;0.55;;;14.70;99.90;;;;;;6235518;28;20074;-78
2021/07/15 04:23:13;;;;;;;1.30;1.17;;;14.80;99.90;;;;;;6235604;28;20026;-78
2021/07/15 04:26:14;;;;;;;2.53;2.33;;;14.80;99.90;;;;;;6243077;28;20032;-78
2021/07/15 04:29:14;;;;;;;1.15;1.15;;;14.80;99.90;;;;;;6243155;28;20040;-79
2021/07/15 04:32:54;;;;;;;1.10;1.10;;;14.80;99.90;;;;;;6243326;28;20087;-77
2021/07/15 04:35:55;;;;;;;1.95;1.27;;;14.90;99.90;;;;;;6151797;28;20030;-79
2021/07/15 04:38:56;;;;;;;1.42;1.33;;;15.30;99.90;;;;;;6151775;28;20038;-80
2021/07/15 04:41:59;;;;;;;2.05;1.30;;;15.00;99.90;;;;;;6151566;28;20058;-83
2021/07/15 04:45:00;;;;;;;3.13;1.23;;;15.10;99.90;;;;;;6167828;28;20057;-82
2021/07/15 04:48:00;;;;;;;1.55;1.10;;;14.80;99.90;;;;;;6150315;28;20066;-82
2021/07/15 04:51:01;;;;;;;1.80;1.70;;;15.10;99.90;;;;;;6151808;28;20097;-82
2021/07/15 04:54:02;;;;;;;1.90;1.77;;;15.20;99.90;;;;;;6151117;28;20031;-84
2021/07/15 04:57:02;;;;;;;2.20;2.00;;;15.00;99.90;;;;;;6167332;28;20051;-84
2021/07/15 05:00:06;;;;;;;3.75;1.98;;;15.20;99.90;;;;;;6151472;28;20092;-84
2021/07/15 05:03:13;;;;;;;1.58;1.40;;;15.20;99.90;;;;;;6135039;28;20490;-84
2021/07/15 05:06:14;;;;;;;3.30;2.13;;;15.30;99.90;;;;;;6151701;28;20031;-87
2021/07/15 05:09:14;;;;;;;18.25;14.18;;;15.30;99.90;;;;;;6179277;28;20053;-84
2021/07/15 05:15:19;;;;;;;2.53;2.10;;;15.40;99.90;;;;;;6265812;27;20135;-82
2021/07/15 05:18:20;;;;;;;2.42;2.03;;;15.70;99.90;;;;;;6253390;28;20032;-81
2021/07/15 05:21:21;;;;;;;1.48;1.38;;;15.40;99.90;;;;;;6250956;28;20039;-82
2021/07/15 05:24:21;;;;;;;5.63;2.10;;;15.50;99.90;;;;;;6252041;28;20029;-81
2021/07/15 05:27:22;;;;;;;3.47;2.13;;;15.60;99.90;;;;;;6286193;28;20028;-83
2021/07/15 05:30:22;;;;;;;2.50;1.60;;;15.70;99.90;;;;;;6252708;28;20403;-82
2021/07/15 05:33:23;;;;;;;2.80;1.33;;;15.60;99.90;;;;;;6269245;28;20045;-79
2021/07/15 05:36:24;;;;;;;2.20;2.00;;;15.80;99.90;;;;;;6268503;28;20035;-80
2021/07/15 05:39:24;;;;;;;0.98;0.77;;;15.80;99.90;;;;;;6235284;28;20394;-79
2021/07/15 05:42:25;;;;;;;0.70;0.70;;;15.90;99.90;;;;;;6251607;28;20033;-80
2021/07/15 05:45:25;;;;;;;1.95;1.55;;;16.00;99.90;;;;;;6252296;28;20025;-79
2021/07/15 05:48:26;;;;;;;1.95;1.55;;;16.00;99.90;;;;;;6268856;28;20056;-78
2021/07/15 05:51:27;;;;;;;1.05;1.00;;;16.20;99.90;;;;;;6268505;28;20518;-79
2021/07/15 05:54:27;;;;;;;3.85;1.25;;;16.30;99.90;;;;;;6286131;28;20117;-79
2021/07/15 05:57:29;;;;;;;1.25;1.00;;;16.30;99.90;;;;;;6268178;28;20135;-82
2021/07/15 06:00:29;;;;;;;12.75;3.03;;;16.40;99.90;;;;;;6252049;28;20028;-83
2021/07/15 06:03:30;;;;;;;2.00;1.00;;;16.60;99.90;;;;;;6287601;28;20037;-82
2021/07/15 06:06:30;;;;;;;2.45;1.38;;;16.80;99.90;;;;;;6269685;28;20029;-84
2021/07/15 06:09:31;;;;;;;0.98;0.90;;;16.90;99.90;;;;;;6251942;28;20040;-84
2021/07/15 06:12:32;;;;;;;0.70;0.70;;;17.00;99.90;;;;;;6252529;28;20090;-84
2021/07/15 06:15:32;;;;;;;1.65;1.30;;;17.10;99.90;;;;;;6252486;28;20041;-84
2021/07/15 06:18:33;;;;;;;1.30;1.08;;;17.20;99.90;;;;;;6269944;28;20068;-84
2021/07/15 06:21:34;;;;;;;1.50;1.40;;;17.20;99.90;;;;;;6253408;28;20041;-84
2021/07/15 06:24:34;;;;;;;1.30;1.20;;;17.40;99.90;;;;;;6264475;28;20036;-84
2021/07/15 06:27:36;;;;;;;2.13;1.55;;;17.50;99.90;;;;;;6253411;28;20036;-84
2021/07/15 06:30:37;;;;;;;1.10;1.10;;;17.50;99.90;;;;;;6236244;28;20105;-84
2021/07/15 06:33:38;;;;;;;0.85;0.85;;;17.60;99.90;;;;;;6236814;28;20048;-84
2021/07/15 06:36:39;;;;;;;2.67;1.20;;;17.50;99.90;;;;;;6220308;28;20068;-85
2021/07/15 06:39:40;;;;;;;4.60;1.60;;;17.60;99.90;;;;;;6236638;28;20528;-85
2021/07/15 06:42:40;;;;;;;1.88;1.70;;;17.70;99.90;;;;;;6220021;28;20033;-84
2021/07/15 06:45:41;;;;;;;1.83;1.60;;;17.80;99.90;;;;;;6253283;28;20124;-88
2021/07/15 06:48:42;;;;;;;1.67;1.17;;;18.00;99.90;;;;;;6220081;28;20036;-86
2021/07/15 06:51:42;;;;;;;1.42;1.33;;;18.20;99.90;;;;;;6235713;28;20115;-85
2021/07/15 06:54:43;;;;;;;1.27;1.17;;;18.50;99.90;;;;;;6219649;28;20052;-83
2021/07/15 06:57:44;;;;;;;0.68;0.68;;;18.70;99.90;;;;;;6235961;28;20021;-82
2021/07/15 07:00:45;;;;;;;0.80;0.80;;;18.70;99.90;;;;;;6219798;28;20041;-82
2021/07/15 07:03:46;;;;;;;0.50;0.50;;;18.50;99.90;;;;;;6251672;28;20021;-81
2021/07/15 07:06:46;;;;;;;1.52;1.02;;;18.40;99.90;;;;;;6234542;28;20079;-82
2021/07/15 07:09:47;;;;;;;0.85;0.85;;;18.30;99.90;;;;;;6235225;28;20088;-82
2021/07/15 07:12:48;;;;;;;0.82;0.82;;;18.20;99.90;;;;;;6268984;28;20166;-83
2021/07/15 07:15:48;;;;;;;1.13;1.00;;;18.10;99.90;;;;;;6236285;28;20660;-85
2021/07/15 07:18:49;;;;;;;1.60;1.00;;;18.10;99.90;;;;;;6218979;28;20116;-83
2021/07/15 07:21:49;;;;;;;3.63;0.88;;;18.10;99.90;;;;;;6235548;28;20056;-85
2021/07/15 07:24:50;;;;;;;3.58;1.00;;;18.10;99.90;;;;;;6219084;28;20033;-88
2021/07/15 07:27:51;;;;;;;2.85;1.05;;;18.20;99.90;;;;;;6218929;28;20033;-84
2021/07/15 07:30:51;;;;;;;2.88;1.35;;;18.20;99.90;;;;;;6234709;28;20039;-84
2021/07/15 07:33:52;;;;;;;0.52;0.52;;;18.30;99.90;;;;;;6251093;28;20029;-86
2021/07/15 07:36:53;;;;;;;0.65;0.65;;;18.40;99.90;;;;;;6249921;28;20070;-83
2021/07/15 07:39:53;;;;;;;1.00;1.00;;;18.50;99.90;;;;;;6234787;28;20370;-84
2021/07/15 07:42:54;;;;;;;1.73;0.88;;;18.50;99.90;;;;;;6234919;28;20028;-84
2021/07/15 07:45:56;;;;;;;0.90;0.90;;;18.50;99.90;;;;;;6217629;28;20021;-84
2021/07/15 07:48:57;;;;;;;0.63;0.63;;;18.10;99.90;;;;;;6235126;28;20489;-83
2021/07/15 07:51:57;;;;;;;1.55;1.35;;;19.00;99.90;;;;;;6217219;28;20029;-84
2021/07/15 07:54:58;;;;;;;3.20;1.45;;;19.10;99.90;;;;;;6217829;28;20482;-83
2021/07/15 07:57:58;;;;;;;1.00;0.98;;;19.30;99.90;;;;;;6233890;28;20033;-83
2021/07/15 08:00:59;;;;;;;1.48;1.20;;;19.50;99.90;;;;;;6234237;28;20021;-81
2021/07/15 08:04:00;;;;;;;0.65;0.65;;;19.70;99.90;;;;;;6234597;28;20052;-80
2021/07/15 08:07:02;;;;;;;0.60;0.60;;;20.00;99.90;;;;;;6233938;28;20170;-80
2021/07/15 08:10:04;;;;;;;0.90;0.90;;;20.70;99.90;;;;;;6249490;28;21465;-81
2021/07/15 08:13:04;;;;;;;0.60;0.60;;;21.30;99.90;;;;;;6233472;28;20184;-78
2021/07/15 08:16:05;;;;;;;0.70;0.70;;;21.60;99.90;;;;;;6234421;28;20041;-77
2021/07/15 08:19:05;;;;;;;2.05;0.90;;;21.70;99.90;;;;;;6267410;28;20031;-78
2021/07/15 08:22:06;;;;;;;0.77;0.77;;;21.60;99.90;;;;;;6250055;28;20469;-77
2021/07/15 08:25:08;;;;;;;0.90;0.90;;;21.60;99.90;;;;;;6267301;28;20109;-77
2021/07/15 08:28:08;;;;;;;2.55;0.98;;;21.50;99.90;;;;;;6233962;28;20059;-78
2021/07/15 08:31:09;;;;;;;0.90;0.90;;;21.30;99.90;;;;;;6216608;28;20409;-79
2021/07/15 08:34:10;;;;;;;0.93;0.93;;;20.90;99.90;;;;;;6249443;28;20033;-78
2021/07/15 08:37:10;;;;;;;0.73;0.73;;;20.90;99.90;;;;;;6233495;28;20375;-79
2021/07/15 08:40:11;;;;;;;0.98;0.98;;;20.80;99.90;;;;;;6250443;28;20024;-79
2021/07/15 08:43:12;;;;;;;1.02;0.90;;;20.70;99.90;;;;;;6250098;28;20119;-77
2021/07/15 08:46:14;;;;;;;5.05;0.70;;;20.60;99.90;;;;;;6233699;28;20456;-77
2021/07/15 08:49:16;;;;;;;1.92;0.75;;;20.70;99.90;;;;;;6250247;28;20021;-79
2021/07/15 08:52:16;;;;;;;0.68;0.68;;;20.80;99.90;;;;;;6249780;28;20033;-79
2021/07/15 08:56:36;;;;;;;0.77;0.77;;;20.80;99.90;;;;;;6233384;28;20423;-79
2021/07/15 08:58:40;;;;;;;0.65;0.65;;;20.90;99.90;;;;;;6267511;28;20390;-80
2021/07/15 09:01:45;;;;;;;1.63;0.75;;;21.00;99.90;;;;;;6250070;28;20025;-80
2021/07/15 09:04:49;;;;;;;0.70;0.70;;;21.10;99.90;;;;;;6217218;28;20032;-77
2021/07/15 09:07:50;;;;;;;0.82;0.82;;;21.40;99.90;;;;;;6248396;28;20049;-80
2021/07/15 09:10:51;;;;;;;0.85;0.85;;;21.50;99.90;;;;;;6249552;28;20033;-82
2021/07/15 09:13:51;;;;;;;0.77;0.77;;;21.70;99.90;;;;;;6215970;28;20140;-80
2021/07/15 09:16:54;;;;;;;1.13;1.10;;;22.10;99.90;;;;;;6226129;28;20033;-81
2021/07/15 09:19:54;;;;;;;0.77;0.77;;;22.50;99.90;;;;;;6233533;28;20094;-80
2021/07/15 09:23:00;;;;;;;1.20;1.10;;;22.90;99.90;;;;;;6232913;28;20441;-80
2021/07/15 09:26:00;;;;;;;0.85;0.85;;;23.10;99.90;;;;;;6233634;28;20040;-80
2021/07/15 09:29:14;;;;;;;0.80;0.80;;;22.80;99.90;;;;;;6233571;28;20546;-79
2021/07/15 09:32:16;;;;;;;3.42;0.90;;;22.30;99.90;;;;;;6232918;28;20031;-77
2021/07/15 09:35:30;;;;;;;1.17;1.08;;;21.80;99.90;;;;;;6249388;28;20072;-80
2021/07/15 09:38:38;;;;;;;1.10;1.00;;;21.40;99.90;;;;;;6232409;28;20025;-81
2021/07/15 09:41:38;;;;;;;1.73;0.90;;;21.00;99.90;;;;;;6248949;28;20025;-79
2021/07/15 09:44:39;;;;;;;0.82;0.82;;;20.60;99.90;;;;;;6248732;28;20821;-81
2021/07/15 09:47:43;;;;;;;0.80;0.80;;;20.50;99.90;;;;;;6233046;28;20067;-82
2021/07/15 09:50:44;;;;;;;0.77;0.77;;;20.30;99.90;;;;;;6233655;28;20108;-82
2021/07/15 09:53:45;;;;;;;1.13;1.13;;;20.30;99.90;;;;;;6249361;28;20045;-81
2021/07/15 09:56:46;;;;;;;0.85;0.85;;;20.10;99.90;;;;;;6232339;28;20147;-78
2021/07/15 09:59:50;;;;;;;1.13;1.13;;;20.10;99.90;;;;;;6250378;28;20040;-82
2021/07/15 10:02:55;;;;;;;1.35;1.13;;;20.10;99.90;;;;;;6221087;28;20033;-83
2021/07/15 10:06:01;;;;;;;0.98;0.98;;;20.10;99.90;;;;;;6237977;28;20025;-82
2021/07/15 10:09:02;;;;;;;1.00;1.00;;;20.10;99.90;;;;;;6221869;28;20033;-83
2021/07/15 10:12:03;;;;;;;0.95;0.95;;;20.20;99.90;;;;;;6220273;28;20032;-81
2021/07/15 10:15:08;;;;;;;1.00;1.00;;;20.00;99.90;;;;;;6220378;28;20048;-83
2021/07/15 10:18:09;;;;;;;1.38;1.27;;;20.00;99.90;;;;;;6236833;28;20094;-81
2021/07/15 10:21:12;;;;;;;1.10;1.10;;;19.90;99.90;;;;;;6219695;28;20029;-85
2021/07/15 10:24:21;;;;;;;1.92;1.15;;;19.80;99.90;;;;;;6236573;28;20025;-87
2021/07/15 10:27:22;;;;;;;1.20;1.20;;;19.70;99.90;;;;;;6220536;28;20478;-85
2021/07/15 10:30:23;;;;;;;1.45;1.35;;;19.70;99.90;;;;;;6219455;28;20026;-82
2021/07/15 10:33:23;;;;;;;0.85;0.85;;;19.40;99.90;;;;;;6252698;28;20520;-82
2021/07/15 10:36:24;;;;;;;2.70;1.77;;;19.90;99.90;;;;;;6219408;28;20029;-80
2021/07/15 10:39:27;;;;;;;1.17;1.17;;;20.00;99.90;;;;;;6252774;28;20384;-79
2021/07/15 10:42:28;;;;;;;0.90;0.90;;;20.20;99.90;;;;;;6252550;28;20032;-81
2021/07/15 10:45:28;;;;;;;1.73;1.10;;;20.40;99.90;;;;;;6252233;28;20094;-84
2021/07/15 10:48:30;;;;;;;0.90;0.90;;;20.60;99.90;;;;;;6235475;28;20044;-80
2021/07/15 10:51:30;;;;;;;1.67;1.50;;;20.50;99.90;;;;;;6251857;28;20150;-81
2021/07/15 10:54:31;;;;;;;1.00;1.00;;;20.50;99.90;;;;;;6235452;28;20060;-82
2021/07/15 10:57:31;;;;;;;1.17;1.17;;;20.40;99.90;;;;;;6218934;28;20037;-82
2021/07/15 11:00:32;;;;;;;1.20;1.10;;;20.30;99.90;;;;;;6235807;28;20722;-82
2021/07/15 11:03:33;;;;;;;0.80;0.80;;;20.60;99.90;;;;;;6218787;28;20029;-84
2021/07/15 11:06:38;;;;;;;0.70;0.70;;;20.60;99.90;;;;;;6235551;28;20029;-84
2021/07/15 11:09:39;;;;;;;0.60;0.60;;;20.80;99.90;;;;;;6232971;28;20028;-84
2021/07/15 11:12:39;;;;;;;1.00;1.00;;;21.10;99.90;;;;;;6217841;28;20210;-83
2021/07/15 11:15:49;;;;;;;0.68;0.68;;;21.50;99.90;;;;;;6219145;28;20025;-81
2021/07/15 11:18:52;;;;;;;0.88;0.88;;;21.50;99.90;;;;;;6234900;28;20021;-83
2021/07/15 11:21:57;;;;;;;0.70;0.70;;;21.50;99.90;;;;;;6235648;28;20461;-83
2021/07/15 11:25:05;;;;;;;0.93;0.93;;;21.60;99.90;;;;;;6232154;28;20417;-82
2021/07/15 11:28:15;;;;;;;0.93;0.93;;;21.60;99.90;;;;;;6203517;28;20032;-82
2021/07/15 11:31:24;;;;;;;1.00;1.00;;;21.70;99.90;;;;;;6236743;28;20033;-82
2021/07/15 11:34:38;;;;;;;1.00;0.80;;;22.00;99.90;;;;;;6249670;28;20040;-81
2021/07/15 11:37:39;;;;;;;0.75;0.75;;;22.20;99.90;;;;;;6251297;28;20032;-83
2021/07/15 11:40:40;;;;;;;0.68;0.68;;;22.30;99.90;;;;;;6268885;28;20075;-79
2021/07/15 11:43:47;;;;;;;0.80;0.80;;;22.40;99.90;;;;;;6268656;28;20032;-79
2021/07/15 11:46:48;;;;;;;0.60;0.60;;;22.60;99.90;;;;;;6268611;28;20033;-80
2021/07/15 11:49:48;;;;;;;2.58;1.30;;;22.80;99.90;;;;;;6250073;28;20029;-81
2021/07/15 11:53:14;;;;;;;0.80;0.80;;;22.80;99.90;;;;;;6249270;28;20112;-82
2021/07/15 11:56:20;;;;;;;1.95;0.82;;;22.70;99.90;;;;;;6235133;28;20040;-79
2021/07/15 11:59:49;;;;;;;1.10;1.10;;;22.70;99.90;;;;;;6250901;28;20029;-80
2021/07/15 12:02:56;;;;;;;1.50;0.82;;;22.50;99.90;;;;;;6250867;28;20037;-79
2021/07/15 12:05:56;;;;;;;0.95;0.88;;;22.20;99.90;;;;;;6250876;28;20060;-79
2021/07/15 12:09:15;;;;;;;1.25;1.05;;;23.00;99.90;;;;;;6234101;28;20055;-79
2021/07/15 12:12:16;;;;;;;1.60;1.05;;;23.20;99.90;;;;;;6247709;28;20029;-79
2021/07/15 12:15:20;;;;;;;0.88;0.88;;;23.20;99.90;;;;;;6250629;28;20076;-79
2021/07/15 12:18:21;;;;;;;1.10;1.10;;;22.90;99.90;;;;;;6113117;28;20056;-79
2021/07/15 12:21:21;;;;;;;2.38;1.08;;;22.70;99.90;;;;;;6158057;28;20120;-79
2021/07/15 12:24:22;;;;;;;1.00;1.00;;;22.50;99.90;;;;;;6217683;28;20041;-79
2021/07/15 12:27:22;;;;;;;0.90;0.90;;;22.50;99.90;;;;;;6169695;28;20042;-79
2021/07/15 12:30:24;;;;;;;1.10;1.10;;;22.50;99.90;;;;;;6194905;28;20476;-79
2021/07/15 12:33:54;;;;;;;2.70;1.15;;;22.50;99.90;;;;;;6188465;28;20060;-79
2021/07/15 12:36:55;;;;;;;1.08;1.08;;;22.50;99.90;;;;;;6072583;29;20426;-79
2021/07/15 12:39:57;;;;;;;1.30;1.20;;;22.30;99.90;;;;;;6077360;28;20123;-79
2021/07/15 12:43:15;;;;;;;1.33;1.33;;;22.50;99.90;;;;;;6082104;29;20039;-79
2021/07/15 12:46:23;;;;;;;1.52;1.40;;;22.40;99.90;;;;;;6101474;29;20056;-79
2021/07/15 12:49:26;;;;;;;2.20;1.15;;;22.40;99.90;;;;;;6101713;29;20549;-78
2021/07/15 12:52:28;;;;;;;2.28;2.00;;;22.30;99.90;;;;;;6101768;29;20044;-78
2021/07/15 12:55:28;;;;;;;;;;;22.30;99.90;;;;;;6117638;29;20070;-78
2021/07/15 12:58:29;;;;;;;1.52;1.17;;;22.20;99.90;;;;;;6117302;29;19971;-78
2021/07/15 13:01:30;;;;;;;0.88;0.88;;;22.20;99.90;;;;;;6101601;29;20075;-78
2021/07/15 13:04:34;;;;;;;1.50;1.40;;;22.10;99.90;;;;;;6117456;29;20054;-78
2021/07/15 13:07:34;;;;;;;1.67;1.00;;;22.20;99.90;;;;;;6116835;29;20050;-78
2021/07/15 13:14:13;;;;;;;1.33;1.23;;;22.50;99.90;;;;;;6098570;29;20048;-78
2021/07/15 13:14:15;;;;;;;1.80;1.17;;;22.70;99.90;;;;;;6181322;28;20506;-78
2021/07/15 13:17:17;;;;;;;1.58;1.30;;;22.90;99.90;;;;;;6216988;28;20479;-78
2021/07/15 13:20:22;;;;;;;4.47;1.70;;;23.00;99.90;;;;;;6216588;28;20064;-77
2021/07/15 13:23:23;;;;;;;1.50;1.40;;;23.50;99.90;;;;;;6232863;28;20045;-78
2021/07/15 13:26:24;;;;;;;2.90;1.50;;;23.80;99.90;;;;;;6216947;28;20053;-79
2021/07/15 13:29:36;;;;;;;3.85;1.60;;;23.60;99.90;;;;;;6216428;28;20032;-80
2021/07/15 13:32:36;;;;;;;1.38;1.38;;;23.20;99.90;;;;;;6216630;28;20037;-77
2021/07/15 13:35:37;;;;;;;1.58;1.48;;;22.90;99.90;;;;;;6219958;28;20038;-77
2021/07/15 13:38:42;;;;;;;1.08;1.08;;;22.80;99.90;;;;;;6222585;28;20778;-77
2021/07/15 13:41:43;;;;;;;4.05;1.70;;;22.80;99.90;;;;;;6222140;28;20026;-77
2021/07/15 13:44:54;;;;;;;1.25;1.00;;;22.60;99.90;;;;;;6221345;28;20026;-77
2021/07/15 13:47:55;;;;;;;2.85;1.88;;;22.40;99.90;;;;;;6219970;28;20026;-78
2021/07/15 13:51:03;;;;;;;1.67;1.58;;;22.40;99.90;;;;;;6237168;28;20057;-77
2021/07/15 13:54:04;;;;;;;1.70;1.38;;;22.30;99.90;;;;;;6221523;28;20552;-78
2021/07/15 13:57:09;;;;;;;1.83;1.17;;;22.40;99.90;;;;;;6221025;28;20065;-79
2021/07/15 14:00:15;;;;;;;1.60;1.50;;;22.50;99.90;;;;;;6222397;28;20416;-79
2021/07/15 14:03:17;;;;;;;1.10;1.10;;;22.70;99.90;;;;;;6221340;28;20041;-80
2021/07/15 14:06:17;;;;;;;1.60;1.50;;;22.70;99.90;;;;;;6221157;28;20026;-79
2021/07/15 14:09:20;;;;;;;2.22;1.50;;;22.60;99.90;;;;;;6221032;28;20048;-81
2021/07/15 14:12:20;;;;;;;2.13;1.33;;;22.60;99.90;;;;;;6220312;28;20045;-79
2021/07/15 14:15:34;;;;;;;1.65;1.55;;;22.60;99.90;;;;;;6220398;28;20042;-80
2021/07/15 14:18:34;;;;;;;1.60;1.50;;;22.60;99.90;;;;;;6221221;28;20452;-78
2021/07/15 14:21:35;;;;;;;1.25;1.25;;;22.50;99.90;;;;;;6219142;28;20038;-79
2021/07/15 14:24:36;;;;;;;1.58;1.48;;;22.30;99.90;;;;;;6221139;28;20761;-78
2021/07/15 14:27:36;;;;;;;1.77;1.50;;;22.20;99.90;;;;;;6219667;28;20034;-80
2021/07/15 14:30:37;;;;;;;1.75;1.42;;;22.10;99.90;;;;;;6220903;28;20030;-79
2021/07/15 14:33:39;;;;;;;2.33;1.50;;;22.00;99.90;;;;;;6219635;28;20022;-80
2021/07/15 14:36:39;;;;;;;2.70;1.50;;;21.80;99.90;;;;;;6219578;28;20033;-76
2021/07/15 14:39:40;;;;;;;1.60;1.50;;;21.60;99.90;;;;;;6221016;28;20109;-76
2021/07/15 14:42:42;;;;;;;7.43;2.30;;;21.70;99.90;;;;;;6221241;28;20038;-76
2021/07/15 14:45:43;;;;;;;4.63;2.10;;;21.80;99.90;;;;;;6220812;28;20026;-76
2021/07/15 14:48:44;;;;;;;2.10;1.90;;;21.90;99.90;;;;;;6221470;28;20045;-75
2021/07/15 14:51:45;;;;;;;4.57;2.47;;;21.80;99.90;;;;;;6216723;28;20259;-76
2021/07/15 14:54:45;;;;;;;6.72;2.58;;;22.00;99.90;;;;;;6220970;28;20100;-75
2021/07/15 14:57:46;;;;;;;1.80;1.70;;;22.10;99.90;;;;;;6221329;28;20053;-75
2021/07/15 15:00:47;;;;;;;1.90;1.80;;;22.00;99.90;;;;;;6220912;28;20025;-75
2021/07/15 15:03:48;;;;;;;4.93;2.40;;;21.90;99.90;;;;;;6220379;28;20124;-75
2021/07/15 15:06:49;;;;;;;2.55;1.58;;;21.90;99.90;;;;;;6220218;28;20448;-76
2021/07/15 15:09:49;;;;;;;3.20;1.70;;;21.80;99.90;;;;;;6220287;28;20044;-75
2021/07/15 15:12:50;;;;;;;1.63;1.52;;;21.40;99.90;;;;;;6219179;28;20172;-75
2021/07/15 15:15:51;;;;;;;1.98;1.77;;;21.90;99.90;;;;;;6219603;28;20088;-75
2021/07/15 15:18:51;;;;;;;2.35;2.10;;;21.90;99.90;;;;;;6219753;28;20026;-75
2021/07/15 15:21:52;;;;;;;1.70;1.60;;;21.80;99.90;;;;;;6219449;28;20058;-75
2021/07/15 15:24:52;;;;;;;5.10;2.08;;;21.70;99.90;;;;;;6219517;28;20029;-75
2021/07/15 15:27:53;;;;;;;1.98;1.67;;;21.60;99.90;;;;;;6220699;28;20026;-75
2021/07/15 15:30:56;;;;;;;1.83;1.63;;;21.70;99.90;;;;;;6220350;28;20033;-75
2021/07/15 15:33:56;;;;;;;1.67;1.58;;;21.80;99.90;;;;;;6220088;28;20029;-75
2021/07/15 15:36:57;;;;;;;8.63;2.63;;;21.90;99.90;;;;;;6220498;28;20033;-75
2021/07/15 15:39:58;;;;;;;4.07;2.05;;;22.00;99.90;;;;;;6218531;28;20092;-75
2021/07/15 15:42:58;;;;;;;2.72;1.55;;;22.10;99.90;;;;;;6219595;28;20468;-75
2021/07/15 15:45:59;;;;;;;15.10;5.55;;;22.00;99.90;;;;;;6218296;28;20468;-75
2021/07/15 15:49:00;;;;;;;2.03;1.90;;;22.10;99.90;;;;;;6219628;28;20030;-75
2021/07/15 15:52:01;;;;;;;8.48;4.15;;;22.10;99.90;;;;;;6220121;28;20376;-75
2021/07/15 15:55:03;;;;;;;7.80;3.50;;;22.10;99.90;;;;;;6218719;28;20048;-75